Banner, Mississippi
Current Conditions -  °F | °C
As of 12:55 PM on Tuesday 27 Jan 2015 (Local Time) from KUOX Reporting Station
Clear Clear  
Wind Chill: 54°   Ceiling: Unl
Heat Index: 54°   Visibility: 10mi
Dew Point: 32°   Wind: 7mph
Humidity: 44%   Direction: 340°NNW
Pressure: 30.11"   Gusts: NA
Location:  34.09°N, 89.39°W
Report Text: KUOX 271855Z AUTO 34006KT 030V360 10SM CLR 12/00 A3011 RMK AO2 PWINO PNO
Loading
Personal Weather Stations






























Interactive Weather Map New forecast layout! Learn more

10-Day Weather Forecast

Advertisements
Track Severe Weather on mobile